createdAt,value
2019-05-23T00:00:52.712Z,17.90
2019-05-23T00:03:52.380Z,17.80
2019-05-23T00:06:40.042Z,17.90
2019-05-23T00:09:25.212Z,17.80
2019-05-23T00:11:59.884Z,17.80
2019-05-23T00:14:43.951Z,17.70
2019-05-23T00:17:15.167Z,17.70
2019-05-23T00:19:43.749Z,17.70
2019-05-23T00:22:11.063Z,17.60
2019-05-23T00:24:39.803Z,17.60
2019-05-23T00:27:06.611Z,17.50
2019-05-23T00:29:34.025Z,17.50
2019-05-23T00:32:02.640Z,17.40
2019-05-23T00:34:30.919Z,17.40
2019-05-23T00:36:59.134Z,17.40
2019-05-23T00:39:26.939Z,17.40
2019-05-23T00:41:53.801Z,17.40
2019-05-23T00:44:20.620Z,17.30
2019-05-23T00:46:48.430Z,17.30
2019-05-23T00:49:15.724Z,17.30
2019-05-23T00:51:43.025Z,17.30
2019-05-23T00:54:10.471Z,17.30
2019-05-23T00:56:38.277Z,17.20
2019-05-23T00:59:05.476Z,17.20
2019-05-23T01:01:33.711Z,17.10
2019-05-23T01:04:00.889Z,17.00
2019-05-23T01:06:28.941Z,17.10
2019-05-23T01:08:56.579Z,17.10
2019-05-23T01:11:24.829Z,17.10
2019-05-23T01:13:52.251Z,17.00
2019-05-23T01:16:21.551Z,17.10
2019-05-23T01:18:49.031Z,17.10
2019-05-23T01:21:17.410Z,17.10
2019-05-23T01:23:47.245Z,17.00
2019-05-23T01:26:15.053Z,17.00
2019-05-23T01:28:42.782Z,16.90
2019-05-23T01:31:37.102Z,16.90
2019-05-23T01:34:05.097Z,16.90
2019-05-23T01:36:33.180Z,16.90
2019-05-23T01:39:01.268Z,16.90
2019-05-23T01:41:30.005Z,16.90
2019-05-23T01:43:57.978Z,16.90
2019-05-23T01:46:25.464Z,16.90
2019-05-23T01:48:52.390Z,17.00
2019-05-23T01:51:20.896Z,16.90
2019-05-23T01:53:47.553Z,16.90
2019-05-23T01:56:14.718Z,16.90
2019-05-23T01:58:41.968Z,16.80
2019-05-23T02:01:09.589Z,16.80
2019-05-23T02:03:37.553Z,16.80
2019-05-23T02:06:04.824Z,16.80
2019-05-23T02:08:31.418Z,16.80
2019-05-23T02:10:58.188Z,16.80
2019-05-23T02:13:26.567Z,16.80
2019-05-23T02:15:54.293Z,16.70
2019-05-23T02:18:23.244Z,16.70
2019-05-23T02:20:50.404Z,16.60
2019-05-23T02:23:17.517Z,16.60
2019-05-23T02:25:45.345Z,16.70
2019-05-23T02:28:13.453Z,16.70
2019-05-23T02:30:40.196Z,16.70
2019-05-23T02:33:09.810Z,16.70
2019-05-23T02:35:37.306Z,16.70
2019-05-23T02:38:08.936Z,16.80
2019-05-23T02:40:52.532Z,16.70
2019-05-23T02:43:21.112Z,16.80
2019-05-23T02:45:51.050Z,16.90
2019-05-23T02:48:19.555Z,16.90
2019-05-23T02:51:06.596Z,16.90
2019-05-23T02:53:34.943Z,16.80
2019-05-23T02:56:08.672Z,16.80
2019-05-23T02:58:48.905Z,16.90
2019-05-23T03:01:27.099Z,16.80
2019-05-23T03:03:56.337Z,16.80
2019-05-23T03:06:24.511Z,16.80
2019-05-23T03:08:51.907Z,16.80
2019-05-23T03:11:28.354Z,16.90
2019-05-23T03:13:57.292Z,16.90
2019-05-23T03:16:25.672Z,16.90
2019-05-23T03:18:57.821Z,16.90
2019-05-23T03:21:25.181Z,16.90
2019-05-23T03:23:52.275Z,16.90
2019-05-23T03:26:39.358Z,16.90
2019-05-23T03:29:07.808Z,16.90
2019-05-23T03:31:36.387Z,16.80
2019-05-23T03:34:04.887Z,16.90
2019-05-23T03:36:33.460Z,16.90
2019-05-23T03:39:01.694Z,16.90
2019-05-23T03:41:30.685Z,16.90
2019-05-23T03:43:58.665Z,16.90
2019-05-23T03:46:27.634Z,16.90
2019-05-23T03:48:55.882Z,16.90
2019-05-23T03:51:23.310Z,16.90
2019-05-23T03:53:51.724Z,17.00
2019-05-23T03:56:19.109Z,17.00
2019-05-23T03:58:47.481Z,17.10
2019-05-23T04:01:17.640Z,17.10
2019-05-23T04:03:44.430Z,17.10
2019-05-23T04:06:12.305Z,17.10
2019-05-23T04:08:39.017Z,17.20
2019-05-23T04:11:05.693Z,17.10
2019-05-23T04:13:32.397Z,17.10
2019-05-23T04:16:00.004Z,17.20
2019-05-23T04:18:26.797Z,17.20
2019-05-23T04:20:53.796Z,17.20
2019-05-23T04:23:21.212Z,17.20
2019-05-23T04:25:48.454Z,17.20
2019-05-23T04:28:24.552Z,17.20
2019-05-23T04:30:53.517Z,17.20
2019-05-23T04:33:20.292Z,17.30
2019-05-23T04:35:47.764Z,17.30
2019-05-23T04:38:15.545Z,17.30
2019-05-23T04:40:42.406Z,17.30
2019-05-23T04:43:08.889Z,17.30
2019-05-23T04:45:35.991Z,17.40
2019-05-23T04:48:04.314Z,17.40
2019-05-23T04:50:31.780Z,17.40
2019-05-23T04:52:59.162Z,17.50
2019-05-23T04:55:26.676Z,17.50
2019-05-23T04:57:53.642Z,17.50
2019-05-23T05:00:20.887Z,17.50
2019-05-23T05:02:47.647Z,17.40
2019-05-23T05:05:15.370Z,17.40
2019-05-23T05:07:42.643Z,17.50
2019-05-23T05:10:12.039Z,17.50
2019-05-23T05:12:38.683Z,17.50
2019-05-23T05:15:05.641Z,17.60
2019-05-23T05:17:34.150Z,17.60
2019-05-23T05:20:00.762Z,17.60
2019-05-23T05:22:27.509Z,17.60
2019-05-23T05:24:54.232Z,17.70
2019-05-23T05:27:21.177Z,17.70
2019-05-23T05:29:48.378Z,17.80
2019-05-23T05:32:15.634Z,17.80
2019-05-23T05:34:42.728Z,17.80
2019-05-23T05:37:12.743Z,17.80
2019-05-23T05:39:39.426Z,17.80
2019-05-23T05:42:08.732Z,17.90
2019-05-23T05:44:37.734Z,17.90
2019-05-23T05:47:04.587Z,17.90
2019-05-23T05:49:33.273Z,17.90
2019-05-23T05:51:59.948Z,18.00
2019-05-23T05:54:26.581Z,18.10
2019-05-23T05:56:53.037Z,18.20
2019-05-23T05:59:19.542Z,18.30
2019-05-23T06:01:49.949Z,18.30
2019-05-23T06:04:18.291Z,18.30
2019-05-23T06:07:01.843Z,18.40
2019-05-23T06:09:34.125Z,18.40
2019-05-23T06:12:02.357Z,18.40
2019-05-23T06:14:31.077Z,18.50
2019-05-23T06:16:57.658Z,18.60
2019-05-23T06:19:27.279Z,18.50
2019-05-23T06:21:53.925Z,18.50
2019-05-23T06:24:39.304Z,18.50
2019-05-23T06:26:49.033Z,18.40
2019-05-23T06:29:15.835Z,18.40
2019-05-23T06:31:42.680Z,18.40
2019-05-23T06:34:11.024Z,18.50
2019-05-23T06:36:37.935Z,18.40
2019-05-23T06:39:07.572Z,18.40
2019-05-23T06:41:34.230Z,18.40
2019-05-23T06:44:01.508Z,18.40
2019-05-23T06:46:28.393Z,18.40
2019-05-23T06:48:55.144Z,18.40
2019-05-23T06:51:22.579Z,18.50
2019-05-23T06:53:49.781Z,18.60
2019-05-23T06:56:16.910Z,18.60
2019-05-23T06:58:43.485Z,18.70
2019-05-23T07:01:10.013Z,18.60
2019-05-23T07:03:42.640Z,18.70
2019-05-23T07:06:06.315Z,18.70
2019-05-23T07:08:32.934Z,18.80
2019-05-23T07:10:59.774Z,18.80
2019-05-23T07:13:29.150Z,18.80
2019-05-23T07:15:55.672Z,18.70
2019-05-23T07:18:22.350Z,18.70
2019-05-23T07:20:48.961Z,18.70
2019-05-23T07:23:15.966Z,18.70
2019-05-23T07:25:43.025Z,18.60
2019-05-23T07:28:09.811Z,18.60
2019-05-23T07:30:36.483Z,18.70
2019-05-23T07:33:03.774Z,18.80
2019-05-23T07:35:30.479Z,18.90
2019-05-23T07:37:57.087Z,18.90
2019-05-23T07:40:25.450Z,18.90
2019-05-23T07:42:52.161Z,18.80
2019-05-23T07:45:22.026Z,19.00
2019-05-23T07:47:48.628Z,19.00
2019-05-23T07:50:15.401Z,19.10
2019-05-23T07:52:42.908Z,19.10
2019-05-23T07:55:28.658Z,19.20
2019-05-23T07:57:56.759Z,19.20
2019-05-23T08:00:27.837Z,19.30
2019-05-23T08:02:58.837Z,19.20
2019-05-23T08:05:26.322Z,19.30
2019-05-23T08:07:53.581Z,19.30
2019-05-23T08:10:33.275Z,19.30
2019-05-23T08:12:49.205Z,19.30
2019-05-23T08:15:17.062Z,19.40
2019-05-23T08:17:44.011Z,19.50
2019-05-23T08:20:11.668Z,19.50
2019-05-23T08:22:38.101Z,19.60
2019-05-23T08:25:04.747Z,19.60
2019-05-23T08:27:33.378Z,19.50
2019-05-23T08:30:02.343Z,19.50
2019-05-23T08:32:29.521Z,19.60
2019-05-23T08:34:56.089Z,19.70
2019-05-23T08:37:23.542Z,19.70
2019-05-23T08:39:50.939Z,19.80
2019-05-23T08:42:18.175Z,19.90
2019-05-23T08:44:45.077Z,19.90
2019-05-23T08:47:12.754Z,19.90
2019-05-23T08:49:41.183Z,20.00
2019-05-23T08:52:07.789Z,20.00
2019-05-23T08:54:34.807Z,20.00
2019-05-23T08:57:01.790Z,20.10
2019-05-23T08:59:29.443Z,20.10
2019-05-23T09:01:55.955Z,20.20
2019-05-23T09:04:23.135Z,20.30
2019-05-23T09:06:50.708Z,20.40
2019-05-23T09:09:28.930Z,20.50
2019-05-23T09:11:46.680Z,20.50
2019-05-23T09:14:13.408Z,20.50
2019-05-23T09:16:40.422Z,20.50
2019-05-23T09:19:07.278Z,20.50
2019-05-23T09:21:33.846Z,20.60
2019-05-23T09:24:00.485Z,20.60
2019-05-23T09:26:27.057Z,20.70
2019-05-23T09:28:53.703Z,20.80
2019-05-23T09:31:21.404Z,20.80
2019-05-23T09:33:47.779Z,20.80
2019-05-23T09:36:14.880Z,20.80
2019-05-23T09:38:41.415Z,20.90
2019-05-23T09:41:08.108Z,20.90
2019-05-23T09:43:35.848Z,20.90
2019-05-23T09:46:02.738Z,21.00
2019-05-23T09:48:30.156Z,21.00
2019-05-23T09:50:57.320Z,21.10
2019-05-23T09:53:24.350Z,21.20
2019-05-23T09:55:51.396Z,21.30
2019-05-23T09:58:18.125Z,21.40
2019-05-23T10:00:44.842Z,21.40
2019-05-23T10:03:11.807Z,21.40
2019-05-23T10:05:43.176Z,21.50
2019-05-23T10:08:07.953Z,21.50
2019-05-23T10:10:35.526Z,21.50
2019-05-23T10:13:02.222Z,21.50
2019-05-23T10:18:14.243Z,21.50
2019-05-23T10:20:41.625Z,21.50
2019-05-23T10:23:08.133Z,21.40
2019-05-23T10:25:34.657Z,21.30
2019-05-23T10:28:01.198Z,21.40
2019-05-23T10:30:28.122Z,21.30
2019-05-23T10:32:54.756Z,21.30
2019-05-23T10:35:21.726Z,21.40
2019-05-23T10:37:48.145Z,21.50
2019-05-23T10:40:15.520Z,21.60
2019-05-23T10:42:42.265Z,21.70
2019-05-23T10:45:09.467Z,21.80
2019-05-23T10:47:36.179Z,21.90
2019-05-23T10:50:08.151Z,22.00
2019-05-23T10:52:34.165Z,22.10
2019-05-23T10:55:00.912Z,22.10
2019-05-23T10:57:27.407Z,22.10
2019-05-23T10:59:53.933Z,21.90
2019-05-23T11:02:20.465Z,21.80
2019-05-23T11:04:49.052Z,21.90
2019-05-23T11:07:17.106Z,22.00
2019-05-23T11:09:44.236Z,22.10
2019-05-23T11:12:10.761Z,22.20
2019-05-23T11:14:37.849Z,22.30
2019-05-23T11:17:05.754Z,22.30
2019-05-23T11:19:32.426Z,22.30
2019-05-23T11:21:59.074Z,22.20
2019-05-23T11:24:25.599Z,22.30
2019-05-23T11:26:52.355Z,22.30
2019-05-23T11:29:18.952Z,22.30
2019-05-23T11:31:45.600Z,22.10
2019-05-23T11:34:12.111Z,22.10
2019-05-23T11:36:39.267Z,22.10
2019-05-23T11:39:07.487Z,22.20
2019-05-23T11:41:34.697Z,22.20
2019-05-23T11:44:02.584Z,22.10
2019-05-23T11:46:31.534Z,22.00
2019-05-23T11:48:59.019Z,22.00
2019-05-23T11:51:26.320Z,22.10
2019-05-23T11:54:06.622Z,22.00
2019-05-23T11:56:21.683Z,22.00
2019-05-23T11:58:48.632Z,22.20
2019-05-23T12:01:29.280Z,22.40
2019-05-23T12:03:57.832Z,22.40
2019-05-23T12:06:26.911Z,22.50
2019-05-23T12:08:54.154Z,22.40
2019-05-23T12:11:21.661Z,22.50
2019-05-23T12:13:48.133Z,22.60
2019-05-23T12:16:14.940Z,22.60
2019-05-23T12:18:41.824Z,22.70
2019-05-23T12:21:08.326Z,22.70
2019-05-23T12:23:34.969Z,22.80
2019-05-23T12:26:01.631Z,22.90
2019-05-23T12:28:28.363Z,23.00
2019-05-23T12:30:55.470Z,23.00
2019-05-23T12:33:22.055Z,22.90
2019-05-23T12:35:48.702Z,22.90
2019-05-23T12:38:15.734Z,22.80
2019-05-23T12:40:42.601Z,22.70
2019-05-23T12:43:09.177Z,22.80
2019-05-23T12:45:35.670Z,22.80
2019-05-23T12:48:21.043Z,22.90
2019-05-23T12:50:53.806Z,23.00
2019-05-23T12:53:17.694Z,23.20
2019-05-23T12:55:44.459Z,23.30
2019-05-23T12:58:11.215Z,23.30
2019-05-23T13:00:39.773Z,23.50
2019-05-23T13:03:07.213Z,23.50
2019-05-23T13:05:35.763Z,23.60
2019-05-23T13:08:06.062Z,23.50
2019-05-23T13:10:32.143Z,23.40
2019-05-23T13:12:59.603Z,23.20
2019-05-23T13:15:27.038Z,23.20
2019-05-23T13:17:53.777Z,23.20
2019-05-23T13:20:20.820Z,23.20
2019-05-23T13:22:48.514Z,23.10
2019-05-23T13:25:15.656Z,23.10
2019-05-23T13:27:42.392Z,23.10
2019-05-23T13:30:09.867Z,23.10
2019-05-23T13:32:36.598Z,23.10
2019-05-23T13:35:05.891Z,23.20
2019-05-23T13:37:32.724Z,23.20
2019-05-23T13:39:59.254Z,23.20
2019-05-23T13:42:27.140Z,23.20
2019-05-23T13:44:54.023Z,23.20
2019-05-23T13:47:20.901Z,23.20
2019-05-23T13:49:47.617Z,23.20
2019-05-23T13:52:14.217Z,23.20
2019-05-23T13:54:40.929Z,23.30
2019-05-23T13:57:09.158Z,23.30
2019-05-23T13:59:36.849Z,23.20
2019-05-23T14:02:05.406Z,23.20
2019-05-23T14:04:31.981Z,23.20
2019-05-23T14:06:58.530Z,23.20
2019-05-23T14:09:26.148Z,23.10
2019-05-23T14:12:19.495Z,23.10
2019-05-23T14:14:21.131Z,23.10
2019-05-23T14:16:49.803Z,23.10
2019-05-23T14:19:16.474Z,23.00
2019-05-23T14:21:43.345Z,23.00
2019-05-23T14:24:09.919Z,23.00
2019-05-23T14:26:44.386Z,23.10
2019-05-23T14:29:11.011Z,23.10
2019-05-23T14:31:39.428Z,23.20
2019-05-23T14:34:07.824Z,23.20
2019-05-23T14:36:36.263Z,23.30
2019-05-23T14:39:07.549Z,23.40
2019-05-23T14:41:45.297Z,23.40
2019-05-23T14:44:07.039Z,23.80
2019-05-23T14:46:35.447Z,24.00
2019-05-23T14:49:12.910Z,24.10
2019-05-23T14:51:41.508Z,24.40
2019-05-23T14:54:28.110Z,24.40
2019-05-23T14:56:55.119Z,24.20
2019-05-23T14:59:22.803Z,23.90
2019-05-23T15:01:49.944Z,23.70
2019-05-23T15:04:17.184Z,23.60
2019-05-23T15:06:44.015Z,23.50
2019-05-23T15:09:10.645Z,23.40
2019-05-23T15:11:37.994Z,23.40
2019-05-23T15:14:04.535Z,23.70
2019-05-23T15:16:31.216Z,23.70
2019-05-23T15:18:58.467Z,23.50
2019-05-23T15:21:25.151Z,23.50
2019-05-23T15:23:51.929Z,23.50
2019-05-23T15:26:23.134Z,23.50
2019-05-23T15:28:47.955Z,23.90
2019-05-23T15:31:14.630Z,24.60
2019-05-23T15:33:41.336Z,25.30
2019-05-23T15:36:08.010Z,25.60
2019-05-23T15:38:34.653Z,25.30
2019-05-23T15:41:01.535Z,24.90
2019-05-23T15:43:28.078Z,24.50
2019-05-23T15:45:54.727Z,24.30
2019-05-23T15:48:21.272Z,24.40
2019-05-23T15:50:49.830Z,24.70
2019-05-23T15:53:35.491Z,24.80
2019-05-23T15:56:25.895Z,25.20
2019-05-23T15:58:39.552Z,25.70
2019-05-23T16:01:10.666Z,25.80
2019-05-23T16:03:39.391Z,26.00
2019-05-23T16:06:07.779Z,26.10
2019-05-23T16:08:35.288Z,26.20
2019-05-23T16:11:02.506Z,26.20
2019-05-23T16:13:29.016Z,26.10
2019-05-23T16:15:55.682Z,25.60
2019-05-23T16:18:22.924Z,25.20
2019-05-23T16:20:49.346Z,24.90
2019-05-23T16:23:15.712Z,24.70
2019-05-23T16:25:42.249Z,24.20
2019-05-23T16:28:08.879Z,24.10
2019-05-23T16:30:35.576Z,24.00
2019-05-23T16:33:02.344Z,24.10
2019-05-23T16:35:29.155Z,24.30
2019-05-23T16:37:55.975Z,24.50
2019-05-23T16:40:22.736Z,24.60
2019-05-23T16:42:49.253Z,24.90
2019-05-23T16:45:16.074Z,25.20
2019-05-23T16:47:42.543Z,25.40
2019-05-23T16:50:09.474Z,25.50
2019-05-23T16:52:36.279Z,25.60
2019-05-23T16:55:06.735Z,25.70
2019-05-23T16:57:51.325Z,25.80
2019-05-23T17:00:26.317Z,25.80
2019-05-23T17:03:13.272Z,25.80
2019-05-23T17:05:53.496Z,25.80
2019-05-23T17:08:33.965Z,25.80
2019-05-23T17:13:53.316Z,25.80
2019-05-23T17:16:27.579Z,25.80
2019-05-23T17:19:08.667Z,25.80
2019-05-23T17:21:37.197Z,25.80
2019-05-23T17:24:08.336Z,25.80
2019-05-23T17:26:53.595Z,25.80
2019-05-23T17:29:31.221Z,25.80
2019-05-23T17:31:59.814Z,25.80
2019-05-23T17:34:26.205Z,25.70
2019-05-23T17:36:52.798Z,25.60
2019-05-23T17:39:20.159Z,25.60
2019-05-23T17:41:46.837Z,25.40
2019-05-23T17:44:13.404Z,25.30
2019-05-23T17:46:40.269Z,25.00
2019-05-23T17:49:06.857Z,24.90
2019-05-23T17:51:33.625Z,24.80
2019-05-23T17:54:00.282Z,24.70
2019-05-23T17:56:27.037Z,24.60
2019-05-23T17:58:53.789Z,24.50
2019-05-23T18:01:23.619Z,24.30
2019-05-23T18:03:50.363Z,24.30
2019-05-23T18:06:16.846Z,24.20
2019-05-23T18:08:44.041Z,23.90
2019-05-23T18:11:10.762Z,23.70
2019-05-23T18:13:37.306Z,23.70
2019-05-23T18:16:04.244Z,23.60
2019-05-23T18:18:31.678Z,23.60
2019-05-23T18:20:59.264Z,23.50
2019-05-23T18:23:26.337Z,23.40
2019-05-23T18:25:52.826Z,23.20
2019-05-23T18:28:19.540Z,23.10
2019-05-23T18:30:54.328Z,23.00
2019-05-23T18:33:23.095Z,22.90
2019-05-23T18:35:51.293Z,22.80
2019-05-23T18:38:18.410Z,22.70
2019-05-23T18:41:01.592Z,22.70
2019-05-23T18:43:14.859Z,22.60
2019-05-23T18:45:43.265Z,22.50
2019-05-23T18:48:10.983Z,22.40
2019-05-23T18:50:38.154Z,22.30
2019-05-23T18:53:06.315Z,22.30
2019-05-23T18:55:33.677Z,22.10
2019-05-23T18:58:00.443Z,22.10
2019-05-23T19:00:50.793Z,22.10
2019-05-23T19:03:17.471Z,22.00
2019-05-23T19:05:46.466Z,21.90
2019-05-23T19:08:13.983Z,21.80
2019-05-23T19:10:41.169Z,21.80
2019-05-23T19:13:07.747Z,21.70
2019-05-23T19:15:34.538Z,21.60
2019-05-23T19:18:01.095Z,21.60
2019-05-23T19:20:28.408Z,21.60
2019-05-23T19:22:55.380Z,21.60
2019-05-23T19:25:23.467Z,21.50
2019-05-23T19:27:50.111Z,21.40
2019-05-23T19:30:17.415Z,21.50
2019-05-23T19:32:44.392Z,21.40
2019-05-23T19:35:11.342Z,21.40
2019-05-23T19:37:39.221Z,21.30
2019-05-23T19:40:06.045Z,21.20
2019-05-23T19:42:32.804Z,21.10
2019-05-23T19:44:59.327Z,21.10
2019-05-23T19:47:27.153Z,21.10
2019-05-23T19:49:53.696Z,21.10
2019-05-23T19:52:20.534Z,21.10
2019-05-23T19:54:47.119Z,21.10
2019-05-23T19:57:15.439Z,21.00
2019-05-23T19:59:42.472Z,20.90
2019-05-23T20:02:17.436Z,21.00
2019-05-23T20:04:51.569Z,21.00
2019-05-23T20:07:18.779Z,20.90
2019-05-23T20:09:45.633Z,20.90
2019-05-23T20:12:14.452Z,20.90
2019-05-23T20:14:41.230Z,20.80
2019-05-23T20:17:08.196Z,20.80
2019-05-23T20:19:34.879Z,20.80
2019-05-23T20:22:01.787Z,20.80
2019-05-23T20:24:28.216Z,20.80
2019-05-23T20:26:54.853Z,20.70
2019-05-23T20:29:21.738Z,20.70
2019-05-23T20:31:48.734Z,20.60
2019-05-23T20:34:15.618Z,20.60
2019-05-23T20:36:42.372Z,20.60
2019-05-23T20:39:10.355Z,20.50
2019-05-23T20:41:38.875Z,20.60
2019-05-23T20:44:06.232Z,20.50
2019-05-23T20:46:33.175Z,20.50
2019-05-23T20:48:59.804Z,20.50
2019-05-23T20:51:26.536Z,20.50
2019-05-23T20:53:53.142Z,20.50
2019-05-23T20:56:19.783Z,20.50
2019-05-23T20:58:46.457Z,20.40
2019-05-23T21:01:20.804Z,20.40
2019-05-23T21:03:48.228Z,20.40
2019-05-23T21:06:14.853Z,20.50
2019-05-23T21:08:42.686Z,20.40
2019-05-23T21:11:09.373Z,20.40
2019-05-23T21:13:36.071Z,20.40
2019-05-23T21:16:03.367Z,20.40
2019-05-23T21:18:30.136Z,20.40
2019-05-23T21:20:56.688Z,20.40
2019-05-23T21:23:24.551Z,20.40
2019-05-23T21:25:55.740Z,20.40
2019-05-23T21:28:22.412Z,20.40
2019-05-23T21:30:49.454Z,20.40
2019-05-23T21:33:15.991Z,20.40
2019-05-23T21:35:42.484Z,20.40
2019-05-23T21:38:09.167Z,20.30
2019-05-23T21:40:39.336Z,20.40
2019-05-23T21:43:06.016Z,20.30
2019-05-23T21:45:32.952Z,20.30
2019-05-23T21:47:59.626Z,20.30
2019-05-23T21:50:27.457Z,20.30
2019-05-23T21:52:54.383Z,20.30
2019-05-23T21:55:37.751Z,20.30
2019-05-23T21:58:06.708Z,20.30
2019-05-23T22:01:06.144Z,20.30
2019-05-23T22:03:37.004Z,20.30
2019-05-23T22:06:08.052Z,20.20
2019-05-23T22:08:35.668Z,20.20
2019-05-23T22:11:02.721Z,20.20
2019-05-23T22:13:29.363Z,20.20
2019-05-23T22:15:57.994Z,20.20
2019-05-23T22:18:26.856Z,20.20
2019-05-23T22:20:54.184Z,20.20
2019-05-23T22:23:21.432Z,20.10
2019-05-23T22:25:48.097Z,20.20
2019-05-23T22:28:15.089Z,20.20
2019-05-23T22:30:42.105Z,20.20
2019-05-23T22:33:09.021Z,20.10
2019-05-23T22:35:35.933Z,20.10
2019-05-23T22:38:02.582Z,20.10
2019-05-23T22:40:29.160Z,20.10
2019-05-23T22:42:56.603Z,20.10
2019-05-23T22:45:25.214Z,20.00
2019-05-23T22:48:11.533Z,20.10
2019-05-23T22:50:38.177Z,20.10
2019-05-23T22:53:04.697Z,20.10
2019-05-23T22:55:32.362Z,20.10
2019-05-23T22:57:59.074Z,20.10
2019-05-23T23:00:33.544Z,20.10
2019-05-23T23:03:00.566Z,20.10
2019-05-23T23:05:27.067Z,20.10
2019-05-23T23:07:54.479Z,20.10
2019-05-23T23:10:21.361Z,20.10
2019-05-23T23:12:47.998Z,20.10
2019-05-23T23:15:14.777Z,20.00
2019-05-23T23:17:41.174Z,20.00
2019-05-23T23:20:07.869Z,19.90
2019-05-23T23:22:35.275Z,19.90
2019-05-23T23:25:02.023Z,20.00
2019-05-23T23:27:28.736Z,19.90
2019-05-23T23:29:56.611Z,19.90
2019-05-23T23:32:23.258Z,19.90
2019-05-23T23:34:49.824Z,19.90
2019-05-23T23:37:16.456Z,19.80
2019-05-23T23:39:43.008Z,19.80
2019-05-23T23:42:10.795Z,19.80
2019-05-23T23:44:37.126Z,19.80
2019-05-23T23:47:23.206Z,19.80
2019-05-23T23:50:09.521Z,19.80
2019-05-23T23:52:54.533Z,19.80
2019-05-23T23:55:39.597Z,19.80
2019-05-23T23:58:06.051Z,19.80
